sensor_id;sensor_type;location;lat;lon;timestamp;P1;durP1;ratioP1;P2;durP2;ratioP2
70829;SDS011;58451;51.550;7.208;2023-02-21T00:01:42;36.20;;;15.00;;
70829;SDS011;58451;51.550;7.208;2023-02-21T00:03:32;42.20;;;17.20;;
70829;SDS011;58451;51.550;7.208;2023-02-21T00:05:23;36.20;;;13.90;;
70829;SDS011;58451;51.550;7.208;2023-02-21T00:07:14;39.10;;;15.40;;
70829;SDS011;58451;51.550;7.208;2023-02-21T00:09:05;45.00;;;18.30;;
70829;SDS011;58451;51.550;7.208;2023-02-21T00:10:55;46.00;;;18.20;;
70829;SDS011;58451;51.550;7.208;2023-02-21T00:12:46;41.50;;;16.00;;
70829;SDS011;58451;51.550;7.208;2023-02-21T00:14:37;44.60;;;17.80;;
70829;SDS011;58451;51.550;7.208;2023-02-21T00:16:27;41.60;;;15.00;;
70829;SDS011;58451;51.550;7.208;2023-02-21T00:18:18;37.10;;;14.40;;
70829;SDS011;58451;51.550;7.208;2023-02-21T00:20:09;40.90;;;16.10;;
70829;SDS011;58451;51.550;7.208;2023-02-21T00:22:00;44.70;;;17.40;;
70829;SDS011;58451;51.550;7.208;2023-02-21T00:23:51;43.10;;;17.40;;
70829;SDS011;58451;51.550;7.208;2023-02-21T00:25:42;42.80;;;17.00;;
70829;SDS011;58451;51.550;7.208;2023-02-21T00:27:33;39.60;;;16.00;;
70829;SDS011;58451;51.550;7.208;2023-02-21T00:29:23;38.20;;;14.80;;
70829;SDS011;58451;51.550;7.208;2023-02-21T00:31:17;40.90;;;16.90;;
70829;SDS011;58451;51.550;7.208;2023-02-21T00:33:08;26.20;;;9.20;;
70829;SDS011;58451;51.550;7.208;2023-02-21T00:34:59;42.10;;;17.30;;
70829;SDS011;58451;51.550;7.208;2023-02-21T00:36:53;43.30;;;16.40;;
70829;SDS011;58451;51.550;7.208;2023-02-21T00:38:43;46.30;;;16.80;;
70829;SDS011;58451;51.550;7.208;2023-02-21T00:40:34;39.90;;;15.40;;
70829;SDS011;58451;51.550;7.208;2023-02-21T00:42:24;47.60;;;18.30;;
70829;SDS011;58451;51.550;7.208;2023-02-21T00:44:15;45.20;;;17.30;;
70829;SDS011;58451;51.550;7.208;2023-02-21T00:46:07;38.00;;;14.30;;
70829;SDS011;58451;51.550;7.208;2023-02-21T00:47:58;32.90;;;13.00;;
70829;SDS011;58451;51.550;7.208;2023-02-21T00:49:49;44.20;;;17.70;;
70829;SDS011;58451;51.550;7.208;2023-02-21T00:51:39;41.60;;;15.50;;
70829;SDS011;58451;51.550;7.208;2023-02-21T00:53:31;45.90;;;16.30;;
70829;SDS011;58451;51.550;7.208;2023-02-21T00:55:24;37.40;;;15.00;;
70829;SDS011;58451;51.550;7.208;2023-02-21T00:57:14;40.00;;;15.90;;
70829;SDS011;58451;51.550;7.208;2023-02-21T00:59:05;43.70;;;16.20;;
70829;SDS011;58451;51.550;7.208;2023-02-21T01:00:57;43.20;;;16.20;;
70829;SDS011;58451;51.550;7.208;2023-02-21T01:02:48;32.50;;;12.40;;
70829;SDS011;58451;51.550;7.208;2023-02-21T01:04:38;41.00;;;15.00;;
70829;SDS011;58451;51.550;7.208;2023-02-21T01:06:29;50.90;;;17.40;;
70829;SDS011;58451;51.550;7.208;2023-02-21T01:08:20;43.60;;;16.10;;
70829;SDS011;58451;51.550;7.208;2023-02-21T01:10:10;40.00;;;15.30;;
70829;SDS011;58451;51.550;7.208;2023-02-21T01:12:01;36.00;;;14.00;;
70829;SDS011;58451;51.550;7.208;2023-02-21T01:13:51;48.60;;;18.60;;
70829;SDS011;58451;51.550;7.208;2023-02-21T01:15:42;41.60;;;15.00;;
70829;SDS011;58451;51.550;7.208;2023-02-21T01:17:34;40.00;;;14.40;;
70829;SDS011;58451;51.550;7.208;2023-02-21T01:19:25;45.50;;;16.10;;
70829;SDS011;58451;51.550;7.208;2023-02-21T01:21:17;43.10;;;15.30;;
70829;SDS011;58451;51.550;7.208;2023-02-21T01:23:08;43.40;;;16.70;;
70829;SDS011;58451;51.550;7.208;2023-02-21T01:24:59;47.30;;;16.80;;
70829;SDS011;58451;51.550;7.208;2023-02-21T01:26:50;37.50;;;14.10;;
70829;SDS011;58451;51.550;7.208;2023-02-21T01:28:41;49.90;;;17.90;;
70829;SDS011;58451;51.550;7.208;2023-02-21T01:30:32;46.00;;;17.40;;
70829;SDS011;58451;51.550;7.208;2023-02-21T01:32:23;42.40;;;15.60;;
70829;SDS011;58451;51.550;7.208;2023-02-21T01:34:13;40.80;;;15.60;;
70829;SDS011;58451;51.550;7.208;2023-02-21T01:36:07;45.70;;;16.50;;
70829;SDS011;58451;51.550;7.208;2023-02-21T01:37:58;49.50;;;17.10;;
70829;SDS011;58451;51.550;7.208;2023-02-21T01:39:49;45.30;;;16.80;;
70829;SDS011;58451;51.550;7.208;2023-02-21T01:41:40;44.70;;;14.80;;
70829;SDS011;58451;51.550;7.208;2023-02-21T01:43:31;44.00;;;15.40;;
70829;SDS011;58451;51.550;7.208;2023-02-21T01:47:12;51.50;;;18.30;;
70829;SDS011;58451;51.550;7.208;2023-02-21T01:49:08;46.20;;;16.60;;
70829;SDS011;58451;51.550;7.208;2023-02-21T01:51:02;48.30;;;17.50;;
70829;SDS011;58451;51.550;7.208;2023-02-21T01:52:54;41.50;;;14.30;;
70829;SDS011;58451;51.550;7.208;2023-02-21T01:54:49;46.60;;;17.30;;
70829;SDS011;58451;51.550;7.208;2023-02-21T01:56:42;49.30;;;16.30;;
70829;SDS011;58451;51.550;7.208;2023-02-21T01:58:34;50.20;;;18.50;;
70829;SDS011;58451;51.550;7.208;2023-02-21T02:00:25;53.80;;;19.40;;
70829;SDS011;58451;51.550;7.208;2023-02-21T02:02:23;40.10;;;15.20;;
70829;SDS011;58451;51.550;7.208;2023-02-21T02:04:25;49.30;;;17.60;;
70829;SDS011;58451;51.550;7.208;2023-02-21T02:06:17;54.50;;;18.30;;
70829;SDS011;58451;51.550;7.208;2023-02-21T02:08:10;34.70;;;11.90;;
70829;SDS011;58451;51.550;7.208;2023-02-21T02:10:05;53.10;;;16.30;;
70829;SDS011;58451;51.550;7.208;2023-02-21T02:14:12;38.70;;;14.10;;
70829;SDS011;58451;51.550;7.208;2023-02-21T02:36:13;42.60;;;15.50;;
70829;SDS011;58451;51.550;7.208;2023-02-21T02:38:00;53.00;;;17.60;;
70829;SDS011;58451;51.550;7.208;2023-02-21T02:40:06;52.00;;;17.80;;
70829;SDS011;58451;51.550;7.208;2023-02-21T02:46:05;45.60;;;13.80;;
70829;SDS011;58451;51.550;7.208;2023-02-21T02:47:51;47.00;;;15.30;;
70829;SDS011;58451;51.550;7.208;2023-02-21T02:49:30;56.00;;;18.80;;
70829;SDS011;58451;51.550;7.208;2023-02-21T02:51:10;45.50;;;15.20;;
70829;SDS011;58451;51.550;7.208;2023-02-21T02:52:52;51.40;;;17.60;;
70829;SDS011;58451;51.550;7.208;2023-02-21T02:54:26;50.30;;;16.30;;
70829;SDS011;58451;51.550;7.208;2023-02-21T02:56:00;48.40;;;16.50;;
70829;SDS011;58451;51.550;7.208;2023-02-21T02:57:36;52.20;;;17.00;;
70829;SDS011;58451;51.550;7.208;2023-02-21T02:59:19;52.90;;;17.30;;
70829;SDS011;58451;51.550;7.208;2023-02-21T03:02:50;53.90;;;18.30;;
70829;SDS011;58451;51.550;7.208;2023-02-21T03:08:56;49.30;;;15.90;;
70829;SDS011;58451;51.550;7.208;2023-02-21T03:10:59;53.40;;;17.80;;
70829;SDS011;58451;51.550;7.208;2023-02-21T03:13:03;39.20;;;13.20;;
70829;SDS011;58451;51.550;7.208;2023-02-21T03:15:21;55.30;;;17.50;;
70829;SDS011;58451;51.550;7.208;2023-02-21T03:17:02;44.30;;;14.80;;
70829;SDS011;58451;51.550;7.208;2023-02-21T03:18:49;43.50;;;15.40;;
70829;SDS011;58451;51.550;7.208;2023-02-21T03:20:28;45.70;;;14.70;;
70829;SDS011;58451;51.550;7.208;2023-02-21T03:22:20;49.70;;;18.00;;
70829;SDS011;58451;51.550;7.208;2023-02-21T03:23:57;47.70;;;16.30;;
70829;SDS011;58451;51.550;7.208;2023-02-21T03:25:33;44.70;;;14.80;;
70829;SDS011;58451;51.550;7.208;2023-02-21T03:27:07;47.80;;;16.30;;
70829;SDS011;58451;51.550;7.208;2023-02-21T03:29:02;50.10;;;17.20;;
70829;SDS011;58451;51.550;7.208;2023-02-21T03:30:36;50.50;;;18.20;;
70829;SDS011;58451;51.550;7.208;2023-02-21T03:32:21;64.30;;;21.30;;
70829;SDS011;58451;51.550;7.208;2023-02-21T03:33:55;55.90;;;19.50;;
70829;SDS011;58451;51.550;7.208;2023-02-21T03:35:28;54.90;;;18.60;;
70829;SDS011;58451;51.550;7.208;2023-02-21T03:37:01;49.60;;;17.30;;
70829;SDS011;58451;51.550;7.208;2023-02-21T03:38:34;48.70;;;16.80;;
70829;SDS011;58451;51.550;7.208;2023-02-21T03:40:09;51.70;;;17.50;;
70829;SDS011;58451;51.550;7.208;2023-02-21T03:41:49;57.40;;;19.40;;
70829;SDS011;58451;51.550;7.208;2023-02-21T03:43:21;43.60;;;15.20;;
70829;SDS011;58451;51.550;7.208;2023-02-21T03:44:58;47.40;;;17.00;;
70829;SDS011;58451;51.550;7.208;2023-02-21T03:46:31;45.70;;;15.90;;
70829;SDS011;58451;51.550;7.208;2023-02-21T03:48:03;53.30;;;18.50;;
70829;SDS011;58451;51.550;7.208;2023-02-21T03:49:36;54.40;;;20.20;;
70829;SDS011;58451;51.550;7.208;2023-02-21T03:51:08;55.40;;;19.10;;
70829;SDS011;58451;51.550;7.208;2023-02-21T03:52:40;54.80;;;19.10;;
70829;SDS011;58451;51.550;7.208;2023-02-21T03:54:13;53.60;;;18.50;;
70829;SDS011;58451;51.550;7.208;2023-02-21T03:55:46;46.80;;;15.90;;
70829;SDS011;58451;51.550;7.208;2023-02-21T03:57:23;62.20;;;21.80;;
70829;SDS011;58451;51.550;7.208;2023-02-21T03:58:56;46.90;;;16.40;;
70829;SDS011;58451;51.550;7.208;2023-02-21T04:00:28;60.40;;;20.90;;
70829;SDS011;58451;51.550;7.208;2023-02-21T04:02:01;52.70;;;17.10;;
70829;SDS011;58451;51.550;7.208;2023-02-21T04:03:36;58.50;;;19.90;;
70829;SDS011;58451;51.550;7.208;2023-02-21T04:05:08;59.30;;;22.00;;
70829;SDS011;58451;51.550;7.208;2023-02-21T04:06:40;57.20;;;19.60;;
70829;SDS011;58451;51.550;7.208;2023-02-21T04:08:14;68.50;;;23.20;;
70829;SDS011;58451;51.550;7.208;2023-02-21T04:09:48;53.40;;;18.50;;
70829;SDS011;58451;51.550;7.208;2023-02-21T04:11:26;55.30;;;19.50;;
70829;SDS011;58451;51.550;7.208;2023-02-21T04:12:58;60.10;;;20.30;;
70829;SDS011;58451;51.550;7.208;2023-02-21T04:14:32;58.70;;;20.30;;
70829;SDS011;58451;51.550;7.208;2023-02-21T04:16:04;56.30;;;20.10;;
70829;SDS011;58451;51.550;7.208;2023-02-21T04:17:38;66.60;;;23.10;;
70829;SDS011;58451;51.550;7.208;2023-02-21T04:19:11;60.80;;;20.60;;
70829;SDS011;58451;51.550;7.208;2023-02-21T04:20:43;64.60;;;21.70;;
70829;SDS011;58451;51.550;7.208;2023-02-21T04:22:21;67.40;;;23.30;;
70829;SDS011;58451;51.550;7.208;2023-02-21T04:23:53;63.20;;;21.60;;
70829;SDS011;58451;51.550;7.208;2023-02-21T04:25:26;57.20;;;19.40;;
70829;SDS011;58451;51.550;7.208;2023-02-21T04:27:03;62.70;;;21.70;;
70829;SDS011;58451;51.550;7.208;2023-02-21T04:28:38;55.50;;;19.10;;
70829;SDS011;58451;51.550;7.208;2023-02-21T04:30:10;52.00;;;18.40;;
70829;SDS011;58451;51.550;7.208;2023-02-21T04:31:43;58.00;;;20.60;;
70829;SDS011;58451;51.550;7.208;2023-02-21T04:33:18;57.20;;;19.50;;
70829;SDS011;58451;51.550;7.208;2023-02-21T04:34:50;51.40;;;18.50;;
70829;SDS011;58451;51.550;7.208;2023-02-21T04:36:23;58.20;;;20.20;;
70829;SDS011;58451;51.550;7.208;2023-02-21T04:37:55;62.50;;;20.20;;
70829;SDS011;58451;51.550;7.208;2023-02-21T04:39:28;51.70;;;18.10;;
70829;SDS011;58451;51.550;7.208;2023-02-21T04:41:00;59.60;;;20.90;;
70829;SDS011;58451;51.550;7.208;2023-02-21T04:42:32;52.80;;;18.10;;
70829;SDS011;58451;51.550;7.208;2023-02-21T04:44:04;57.90;;;18.70;;
70829;SDS011;58451;51.550;7.208;2023-02-21T04:45:37;54.80;;;19.00;;
70829;SDS011;58451;51.550;7.208;2023-02-21T04:47:09;55.70;;;18.40;;
70829;SDS011;58451;51.550;7.208;2023-02-21T04:48:42;62.50;;;20.50;;
70829;SDS011;58451;51.550;7.208;2023-02-21T04:50:16;55.00;;;19.10;;
70829;SDS011;58451;51.550;7.208;2023-02-21T04:51:47;67.40;;;22.50;;
70829;SDS011;58451;51.550;7.208;2023-02-21T04:53:19;59.00;;;20.10;;
70829;SDS011;58451;51.550;7.208;2023-02-21T04:54:52;57.10;;;19.50;;
70829;SDS011;58451;51.550;7.208;2023-02-21T04:56:24;60.40;;;20.30;;
70829;SDS011;58451;51.550;7.208;2023-02-21T04:57:58;51.20;;;17.50;;
70829;SDS011;58451;51.550;7.208;2023-02-21T04:59:30;60.60;;;20.20;;
70829;SDS011;58451;51.550;7.208;2023-02-21T05:01:02;63.30;;;21.90;;
70829;SDS011;58451;51.550;7.208;2023-02-21T05:02:34;56.20;;;19.20;;
70829;SDS011;58451;51.550;7.208;2023-02-21T05:04:05;53.40;;;18.60;;
70829;SDS011;58451;51.550;7.208;2023-02-21T05:05:40;56.10;;;19.40;;
70829;SDS011;58451;51.550;7.208;2023-02-21T05:07:12;61.60;;;20.50;;
70829;SDS011;58451;51.550;7.208;2023-02-21T05:08:44;63.50;;;20.30;;
70829;SDS011;58451;51.550;7.208;2023-02-21T05:10:16;63.30;;;21.00;;
70829;SDS011;58451;51.550;7.208;2023-02-21T05:11:49;43.50;;;15.40;;
70829;SDS011;58451;51.550;7.208;2023-02-21T05:13:20;65.50;;;20.90;;
70829;SDS011;58451;51.550;7.208;2023-02-21T05:14:53;57.60;;;18.00;;
70829;SDS011;58451;51.550;7.208;2023-02-21T05:16:25;57.00;;;19.20;;
70829;SDS011;58451;51.550;7.208;2023-02-21T05:17:57;52.90;;;17.20;;
70829;SDS011;58451;51.550;7.208;2023-02-21T05:19:29;57.60;;;19.00;;
70829;SDS011;58451;51.550;7.208;2023-02-21T05:21:01;61.80;;;19.90;;
70829;SDS011;58451;51.550;7.208;2023-02-21T05:22:34;62.40;;;21.60;;
70829;SDS011;58451;51.550;7.208;2023-02-21T05:24:09;60.30;;;20.60;;
70829;SDS011;58451;51.550;7.208;2023-02-21T05:25:41;58.20;;;19.10;;
70829;SDS011;58451;51.550;7.208;2023-02-21T05:27:15;61.20;;;19.80;;
70829;SDS011;58451;51.550;7.208;2023-02-21T05:28:49;61.10;;;19.30;;
70829;SDS011;58451;51.550;7.208;2023-02-21T05:30:22;68.00;;;21.90;;
70829;SDS011;58451;51.550;7.208;2023-02-21T05:31:54;56.30;;;18.10;;
70829;SDS011;58451;51.550;7.208;2023-02-21T05:33:27;68.00;;;21.40;;
70829;SDS011;58451;51.550;7.208;2023-02-21T05:34:59;59.80;;;18.40;;
70829;SDS011;58451;51.550;7.208;2023-02-21T05:36:31;62.00;;;19.20;;
70829;SDS011;58451;51.550;7.208;2023-02-21T05:38:03;67.60;;;21.10;;
70829;SDS011;58451;51.550;7.208;2023-02-21T05:39:35;55.90;;;18.20;;
70829;SDS011;58451;51.550;7.208;2023-02-21T05:41:07;70.20;;;21.50;;
70829;SDS011;58451;51.550;7.208;2023-02-21T05:42:39;62.90;;;20.60;;
70829;SDS011;58451;51.550;7.208;2023-02-21T05:44:14;61.20;;;19.30;;
70829;SDS011;58451;51.550;7.208;2023-02-21T05:45:45;68.20;;;21.00;;
70829;SDS011;58451;51.550;7.208;2023-02-21T05:47:18;66.30;;;20.40;;
70829;SDS011;58451;51.550;7.208;2023-02-21T05:48:50;66.40;;;22.30;;
70829;SDS011;58451;51.550;7.208;2023-02-21T05:50:22;66.00;;;19.80;;
70829;SDS011;58451;51.550;7.208;2023-02-21T05:51:56;74.60;;;21.70;;
70829;SDS011;58451;51.550;7.208;2023-02-21T05:53:28;64.30;;;20.20;;
70829;SDS011;58451;51.550;7.208;2023-02-21T05:55:01;68.90;;;19.50;;
70829;SDS011;58451;51.550;7.208;2023-02-21T05:56:38;72.30;;;20.80;;
70829;SDS011;58451;51.550;7.208;2023-02-21T05:58:11;65.40;;;19.60;;
70829;SDS011;58451;51.550;7.208;2023-02-21T05:59:43;60.10;;;19.40;;
70829;SDS011;58451;51.550;7.208;2023-02-21T06:01:15;69.40;;;21.60;;
70829;SDS011;58451;51.550;7.208;2023-02-21T06:02:47;67.80;;;19.90;;
70829;SDS011;58451;51.550;7.208;2023-02-21T06:04:19;82.70;;;23.10;;
70829;SDS011;58451;51.550;7.208;2023-02-21T06:05:51;65.90;;;21.70;;
70829;SDS011;58451;51.550;7.208;2023-02-21T06:07:23;66.80;;;19.00;;
70829;SDS011;58451;51.550;7.208;2023-02-21T06:08:55;66.30;;;19.70;;
70829;SDS011;58451;51.550;7.208;2023-02-21T06:10:27;70.00;;;21.00;;
70829;SDS011;58451;51.550;7.208;2023-02-21T06:11:58;74.90;;;22.70;;
70829;SDS011;58451;51.550;7.208;2023-02-21T06:13:30;72.60;;;19.80;;
70829;SDS011;58451;51.550;7.208;2023-02-21T06:15:03;64.80;;;18.70;;
70829;SDS011;58451;51.550;7.208;2023-02-21T06:16:38;73.90;;;22.80;;
70829;SDS011;58451;51.550;7.208;2023-02-21T06:18:14;67.30;;;19.70;;
70829;SDS011;58451;51.550;7.208;2023-02-21T06:19:47;63.40;;;19.00;;
70829;SDS011;58451;51.550;7.208;2023-02-21T06:21:19;72.00;;;21.70;;
70829;SDS011;58451;51.550;7.208;2023-02-21T06:22:51;71.90;;;20.60;;
70829;SDS011;58451;51.550;7.208;2023-02-21T06:24:23;60.80;;;18.10;;
70829;SDS011;58451;51.550;7.208;2023-02-21T06:25:55;56.90;;;17.00;;
70829;SDS011;58451;51.550;7.208;2023-02-21T06:27:27;65.50;;;19.40;;
70829;SDS011;58451;51.550;7.208;2023-02-21T06:28:59;65.10;;;19.60;;
70829;SDS011;58451;51.550;7.208;2023-02-21T06:30:31;67.00;;;19.20;;
70829;SDS011;58451;51.550;7.208;2023-02-21T06:32:03;73.60;;;22.20;;
70829;SDS011;58451;51.550;7.208;2023-02-21T06:33:35;56.30;;;17.10;;
70829;SDS011;58451;51.550;7.208;2023-02-21T06:35:08;67.10;;;19.90;;
70829;SDS011;58451;51.550;7.208;2023-02-21T06:36:40;66.60;;;20.30;;
70829;SDS011;58451;51.550;7.208;2023-02-21T06:38:12;70.60;;;19.80;;
70829;SDS011;58451;51.550;7.208;2023-02-21T06:39:44;67.90;;;20.40;;
70829;SDS011;58451;51.550;7.208;2023-02-21T06:41:25;70.20;;;20.20;;
70829;SDS011;58451;51.550;7.208;2023-02-21T06:42:59;50.10;;;14.60;;
70829;SDS011;58451;51.550;7.208;2023-02-21T06:44:31;66.70;;;19.60;;
70829;SDS011;58451;51.550;7.208;2023-02-21T06:46:03;47.40;;;14.00;;
70829;SDS011;58451;51.550;7.208;2023-02-21T06:47:35;65.30;;;19.30;;
70829;SDS011;58451;51.550;7.208;2023-02-21T06:49:07;69.10;;;20.10;;
70829;SDS011;58451;51.550;7.208;2023-02-21T06:50:40;74.70;;;21.60;;
70829;SDS011;58451;51.550;7.208;2023-02-21T06:52:13;66.80;;;18.30;;
70829;SDS011;58451;51.550;7.208;2023-02-21T06:53:48;69.70;;;19.00;;
70829;SDS011;58451;51.550;7.208;2023-02-21T06:55:21;71.50;;;20.70;;
70829;SDS011;58451;51.550;7.208;2023-02-21T06:56:56;64.90;;;17.40;;
70829;SDS011;58451;51.550;7.208;2023-02-21T06:58:28;76.20;;;21.50;;
70829;SDS011;58451;51.550;7.208;2023-02-21T07:00:00;63.70;;;19.20;;
70829;SDS011;58451;51.550;7.208;2023-02-21T07:01:31;64.80;;;17.70;;
70829;SDS011;58451;51.550;7.208;2023-02-21T07:03:04;63.20;;;17.10;;
70829;SDS011;58451;51.550;7.208;2023-02-21T07:04:36;60.50;;;16.90;;
70829;SDS011;58451;51.550;7.208;2023-02-21T07:06:09;71.50;;;20.10;;
70829;SDS011;58451;51.550;7.208;2023-02-21T07:07:41;67.30;;;19.70;;
70829;SDS011;58451;51.550;7.208;2023-02-21T07:09:13;68.30;;;20.30;;
70829;SDS011;58451;51.550;7.208;2023-02-21T07:10:46;75.30;;;18.90;;
70829;SDS011;58451;51.550;7.208;2023-02-21T07:12:18;70.40;;;19.10;;
70829;SDS011;58451;51.550;7.208;2023-02-21T07:13:53;64.80;;;19.00;;
70829;SDS011;58451;51.550;7.208;2023-02-21T07:15:27;70.20;;;19.00;;
70829;SDS011;58451;51.550;7.208;2023-02-21T07:16:59;78.20;;;21.70;;
70829;SDS011;58451;51.550;7.208;2023-02-21T07:18:31;70.50;;;20.00;;
70829;SDS011;58451;51.550;7.208;2023-02-21T07:20:03;69.80;;;20.30;;
70829;SDS011;58451;51.550;7.208;2023-02-21T07:21:36;69.50;;;19.50;;
70829;SDS011;58451;51.550;7.208;2023-02-21T07:23:11;70.30;;;19.50;;
70829;SDS011;58451;51.550;7.208;2023-02-21T07:24:43;72.20;;;19.80;;
70829;SDS011;58451;51.550;7.208;2023-02-21T07:26:15;61.70;;;16.70;;
70829;SDS011;58451;51.550;7.208;2023-02-21T07:27:48;60.70;;;17.30;;
70829;SDS011;58451;51.550;7.208;2023-02-21T07:29:20;68.50;;;18.80;;
70829;SDS011;58451;51.550;7.208;2023-02-21T07:30:52;73.80;;;19.70;;
70829;SDS011;58451;51.550;7.208;2023-02-21T07:32:24;75.30;;;20.80;;
70829;SDS011;58451;51.550;7.208;2023-02-21T07:33:56;83.30;;;21.90;;
70829;SDS011;58451;51.550;7.208;2023-02-21T07:35:28;68.50;;;18.40;;
70829;SDS011;58451;51.550;7.208;2023-02-21T07:37:10;78.10;;;20.60;;
70829;SDS011;58451;51.550;7.208;2023-02-21T07:38:49;66.00;;;18.80;;
70829;SDS011;58451;51.550;7.208;2023-02-21T07:40:27;53.70;;;14.90;;
70829;SDS011;58451;51.550;7.208;2023-02-21T07:42:00;73.10;;;20.50;;
70829;SDS011;58451;51.550;7.208;2023-02-21T07:43:35;61.30;;;17.50;;
70829;SDS011;58451;51.550;7.208;2023-02-21T07:45:14;74.70;;;19.80;;
70829;SDS011;58451;51.550;7.208;2023-02-21T07:46:49;63.30;;;17.30;;
70829;SDS011;58451;51.550;7.208;2023-02-21T07:48:22;73.10;;;21.00;;
70829;SDS011;58451;51.550;7.208;2023-02-21T07:50:00;74.80;;;19.20;;
70829;SDS011;58451;51.550;7.208;2023-02-21T07:51:32;67.70;;;18.20;;
70829;SDS011;58451;51.550;7.208;2023-02-21T07:53:05;61.50;;;16.90;;
70829;SDS011;58451;51.550;7.208;2023-02-21T07:54:36;73.60;;;20.60;;
70829;SDS011;58451;51.550;7.208;2023-02-21T07:56:09;55.50;;;15.00;;
70829;SDS011;58451;51.550;7.208;2023-02-21T07:57:44;62.30;;;17.40;;
70829;SDS011;58451;51.550;7.208;2023-02-21T07:59:17;68.50;;;18.70;;
70829;SDS011;58451;51.550;7.208;2023-02-21T08:00:48;72.30;;;19.30;;
70829;SDS011;58451;51.550;7.208;2023-02-21T08:02:20;77.70;;;20.60;;
70829;SDS011;58451;51.550;7.208;2023-02-21T08:03:53;69.80;;;19.70;;
70829;SDS011;58451;51.550;7.208;2023-02-21T08:05:26;74.90;;;19.50;;
70829;SDS011;58451;51.550;7.208;2023-02-21T08:06:59;65.30;;;18.30;;
70829;SDS011;58451;51.550;7.208;2023-02-21T08:08:32;65.60;;;18.70;;
70829;SDS011;58451;51.550;7.208;2023-02-21T08:10:04;63.50;;;16.90;;
70829;SDS011;58451;51.550;7.208;2023-02-21T08:11:36;62.30;;;17.60;;
70829;SDS011;58451;51.550;7.208;2023-02-21T08:13:08;62.50;;;17.40;;
70829;SDS011;58451;51.550;7.208;2023-02-21T08:14:39;57.80;;;16.20;;
70829;SDS011;58451;51.550;7.208;2023-02-21T08:16:13;72.40;;;20.50;;
70829;SDS011;58451;51.550;7.208;2023-02-21T08:17:49;62.40;;;18.40;;
70829;SDS011;58451;51.550;7.208;2023-02-21T08:19:21;71.60;;;18.90;;
70829;SDS011;58451;51.550;7.208;2023-02-21T08:20:54;70.80;;;19.50;;
70829;SDS011;58451;51.550;7.208;2023-02-21T08:22:30;53.40;;;15.50;;
70829;SDS011;58451;51.550;7.208;2023-02-21T08:24:02;72.30;;;20.60;;
70829;SDS011;58451;51.550;7.208;2023-02-21T08:25:34;69.90;;;20.00;;
70829;SDS011;58451;51.550;7.208;2023-02-21T08:27:06;69.60;;;18.40;;
70829;SDS011;58451;51.550;7.208;2023-02-21T08:28:38;62.00;;;17.60;;
70829;SDS011;58451;51.550;7.208;2023-02-21T08:30:12;57.30;;;14.40;;
70829;SDS011;58451;51.550;7.208;2023-02-21T08:31:48;50.90;;;14.10;;
70829;SDS011;58451;51.550;7.208;2023-02-21T08:33:20;71.00;;;18.30;;
70829;SDS011;58451;51.550;7.208;2023-02-21T08:34:53;52.80;;;13.40;;
70829;SDS011;58451;51.550;7.208;2023-02-21T08:36:33;70.20;;;18.60;;
70829;SDS011;58451;51.550;7.208;2023-02-21T08:38:07;51.20;;;13.10;;
70829;SDS011;58451;51.550;7.208;2023-02-21T08:39:43;55.50;;;15.50;;
70829;SDS011;58451;51.550;7.208;2023-02-21T08:41:23;58.40;;;15.50;;
70829;SDS011;58451;51.550;7.208;2023-02-21T08:42:57;70.00;;;18.40;;
70829;SDS011;58451;51.550;7.208;2023-02-21T08:44:30;63.90;;;16.90;;
70829;SDS011;58451;51.550;7.208;2023-02-21T08:46:03;52.00;;;14.80;;
70829;SDS011;58451;51.550;7.208;2023-02-21T08:47:35;71.80;;;17.80;;
70829;SDS011;58451;51.550;7.208;2023-02-21T08:49:08;58.60;;;15.60;;
70829;SDS011;58451;51.550;7.208;2023-02-21T08:50:40;68.10;;;17.30;;
70829;SDS011;58451;51.550;7.208;2023-02-21T08:52:17;59.40;;;14.50;;
70829;SDS011;58451;51.550;7.208;2023-02-21T08:53:50;65.70;;;17.60;;
70829;SDS011;58451;51.550;7.208;2023-02-21T08:55:23;53.10;;;14.10;;
70829;SDS011;58451;51.550;7.208;2023-02-21T08:56:55;58.70;;;15.30;;
70829;SDS011;58451;51.550;7.208;2023-02-21T08:58:29;64.70;;;16.60;;
70829;SDS011;58451;51.550;7.208;2023-02-21T09:00:01;56.50;;;14.80;;
70829;SDS011;58451;51.550;7.208;2023-02-21T09:01:34;60.10;;;15.60;;
70829;SDS011;58451;51.550;7.208;2023-02-21T09:03:06;63.20;;;15.80;;
70829;SDS011;58451;51.550;7.208;2023-02-21T09:04:38;66.60;;;15.40;;
70829;SDS011;58451;51.550;7.208;2023-02-21T09:06:10;52.90;;;13.40;;
70829;SDS011;58451;51.550;7.208;2023-02-21T09:07:42;58.40;;;15.30;;
70829;SDS011;58451;51.550;7.208;2023-02-21T09:09:14;45.10;;;11.40;;
70829;SDS011;58451;51.550;7.208;2023-02-21T09:10:46;62.20;;;16.30;;
70829;SDS011;58451;51.550;7.208;2023-02-21T09:12:18;64.70;;;16.60;;
70829;SDS011;58451;51.550;7.208;2023-02-21T09:13:50;40.50;;;10.10;;
70829;SDS011;58451;51.550;7.208;2023-02-21T09:15:25;58.70;;;15.00;;
70829;SDS011;58451;51.550;7.208;2023-02-21T09:16:57;62.20;;;15.50;;
70829;SDS011;58451;51.550;7.208;2023-02-21T09:18:31;53.80;;;13.50;;
70829;SDS011;58451;51.550;7.208;2023-02-21T09:20:08;62.90;;;16.50;;
70829;SDS011;58451;51.550;7.208;2023-02-21T09:21:45;60.60;;;15.10;;
70829;SDS011;58451;51.550;7.208;2023-02-21T09:23:17;54.10;;;14.80;;
70829;SDS011;58451;51.550;7.208;2023-02-21T09:24:50;62.20;;;16.00;;
70829;SDS011;58451;51.550;7.208;2023-02-21T09:26:22;62.90;;;16.70;;
70829;SDS011;58451;51.550;7.208;2023-02-21T09:27:55;54.00;;;14.10;;
70829;SDS011;58451;51.550;7.208;2023-02-21T09:29:31;57.90;;;15.60;;
70829;SDS011;58451;51.550;7.208;2023-02-21T09:31:17;46.70;;;12.80;;
70829;SDS011;58451;51.550;7.208;2023-02-21T09:32:51;51.80;;;14.30;;
70829;SDS011;58451;51.550;7.208;2023-02-21T09:34:23;40.80;;;11.10;;
70829;SDS011;58451;51.550;7.208;2023-02-21T09:35:55;43.90;;;12.80;;
70829;SDS011;58451;51.550;7.208;2023-02-21T09:37:27;44.70;;;11.90;;
70829;SDS011;58451;51.550;7.208;2023-02-21T09:38:59;55.10;;;14.80;;
70829;SDS011;58451;51.550;7.208;2023-02-21T09:42:14;51.40;;;13.50;;
70829;SDS011;58451;51.550;7.208;2023-02-21T09:43:52;47.30;;;13.10;;
70829;SDS011;58451;51.550;7.208;2023-02-21T09:45:30;58.70;;;14.80;;
70829;SDS011;58451;51.550;7.208;2023-02-21T09:47:04;57.70;;;15.40;;
70829;SDS011;58451;51.550;7.208;2023-02-21T09:48:40;53.70;;;15.00;;
70829;SDS011;58451;51.550;7.208;2023-02-21T09:50:15;47.30;;;13.60;;
70829;SDS011;58451;51.550;7.208;2023-02-21T09:51:50;45.90;;;13.80;;
70829;SDS011;58451;51.550;7.208;2023-02-21T09:53:30;45.10;;;13.00;;
70829;SDS011;58451;51.550;7.208;2023-02-21T09:56:47;35.10;;;10.30;;
70829;SDS011;58451;51.550;7.208;2023-02-21T09:58:19;42.20;;;12.00;;
70829;SDS011;58451;51.550;7.208;2023-02-21T09:59:52;45.40;;;12.90;;
70829;SDS011;58451;51.550;7.208;2023-02-21T10:01:40;49.60;;;14.50;;
70829;SDS011;58451;51.550;7.208;2023-02-21T10:05:30;43.20;;;13.10;;
70829;SDS011;58451;51.550;7.208;2023-02-21T10:09:15;39.70;;;11.70;;
70829;SDS011;58451;51.550;7.208;2023-02-21T10:11:09;35.50;;;11.00;;
70829;SDS011;58451;51.550;7.208;2023-02-21T10:18:51;39.70;;;12.40;;
70829;SDS011;58451;51.550;7.208;2023-02-21T10:20:55;37.10;;;12.00;;
70829;SDS011;58451;51.550;7.208;2023-02-21T10:22:36;28.30;;;8.60;;